Airfield :
LOGIN :

Register | Disclaimer

   EN    FR    IT 

 










Legend :    VFR   Marginal VFR   IFR   Intensive IFR   Very Intensive IFR
Visi :
Ceiling :
>= 8 km
>= 3000ft
5 to 8 km
1000 to 3000 ft
1500m to 5 km
500 to 1000 ft
800 to 1500m
200 to 500 ft
< 800m
< 200 ft
Symbols :   Thunderstorms  Fog  Heavy snow  Heavy precipitations  Wind > 20 kt
SIGMETs :     Misc.  Thunderstorms  Icing  Turbulence  Mountain Waves  Volcanic Ashes







- Airport Elevation : 39 ft
- IATA code : CTA


LICC - Catania Fontanarossa

CURRENT METAR :
  • 170250Z 24004KT 9999 FEW050 01/01 Q1028

EXPIRED METARs :
  • 170220Z 24004KT 9999 FEW050 02/02 Q1029
  • 170150Z 24004KT 9999 FEW050 02/01 Q1029
  • 170120Z 25003KT 9999 FEW050 02/01 Q1029
  • 170050Z 25005KT 9999 FEW050 02/02 Q1029
  • 170020Z 25004KT 9999 FEW050 03/02 Q1029

TAF TAF LICC
Valid from the 17 at 00:00 until the 18 at 00:00 UTC


162300Z 1700/1724 26008KT 9999 SCT035
BECMG 1708/1710 07010KT
BECMG 1719/1721 26008KT
No reported NOTAMs for that airfield.



MET'MAP, your aeronautical weather chart ! - Copyright ORBIFLY December 2007 - Disclaimer

ORBIFLY MET'MAP TEAM :

Programming & Development : Alexandra Zaïnal
Concept & Development : Baudouin d'Aumeries
Co-Development & Prog : Marc-Olivier Méhu
Technical & hardware support : Manuel Goepfert

Contact : metmap@orbifly.com




SOURCES & CREDITS :

   NOAA